createdAt,value
2022-11-01T00:01:46.481Z,19.17
2022-11-01T00:04:13.800Z,18.47
2022-11-01T00:06:40.925Z,18.00
2022-11-01T00:09:08.260Z,17.10
2022-11-01T00:11:35.417Z,17.30
2022-11-01T00:14:02.678Z,17.30
2022-11-01T00:16:29.814Z,17.70
2022-11-01T00:18:56.942Z,16.10
2022-11-01T00:21:24.388Z,17.03
2022-11-01T00:23:51.487Z,16.27
2022-11-01T00:26:22.415Z,16.03
2022-11-01T00:28:49.633Z,17.10
2022-11-01T00:31:17.224Z,17.27
2022-11-01T00:33:44.460Z,17.23
2022-11-01T00:36:11.628Z,16.13
2022-11-01T00:38:38.812Z,16.37
2022-11-01T00:41:06.138Z,17.33
2022-11-01T00:43:33.845Z,17.57
2022-11-01T00:46:01.136Z,17.37
2022-11-01T00:48:28.370Z,17.13
2022-11-01T00:50:55.449Z,17.00
2022-11-01T00:53:22.610Z,16.37
2022-11-01T00:55:49.731Z,15.97
2022-11-01T00:58:16.813Z,16.33
2022-11-01T01:00:43.984Z,18.77
2022-11-01T01:03:11.224Z,17.50
2022-11-01T01:05:38.299Z,18.70
2022-11-01T01:08:05.493Z,18.17
2022-11-01T01:10:32.877Z,17.20
2022-11-01T01:13:00.344Z,17.90
2022-11-01T01:15:27.860Z,17.50
2022-11-01T01:17:54.943Z,18.00
2022-11-01T01:20:22.108Z,18.17
2022-11-01T01:22:49.204Z,16.83
2022-11-01T01:25:16.464Z,17.17
2022-11-01T01:27:43.531Z,17.43
2022-11-01T01:30:10.986Z,17.70
2022-11-01T01:32:38.116Z,17.30
2022-11-01T01:35:05.425Z,17.30
2022-11-01T01:37:32.538Z,17.70
2022-11-01T01:39:59.680Z,17.13
2022-11-01T01:42:33.423Z,15.60
2022-11-01T01:45:00.610Z,16.37
2022-11-01T01:47:29.836Z,17.70
2022-11-01T01:50:17.185Z,15.57
2022-11-01T01:52:45.131Z,16.90
2022-11-01T01:55:12.259Z,16.17
2022-11-01T01:57:39.364Z,16.60
2022-11-01T02:00:06.684Z,15.73
2022-11-01T02:02:33.981Z,14.30
2022-11-01T02:05:09.494Z,15.20
2022-11-01T02:07:36.576Z,16.67
2022-11-01T02:10:03.877Z,15.30
2022-11-01T02:12:33.445Z,16.23
2022-11-01T02:15:00.117Z,15.20
2022-11-01T02:17:41.025Z,15.33
2022-11-01T02:20:32.212Z,17.50
2022-11-01T02:23:17.654Z,17.77
2022-11-01T02:26:01.512Z,15.53
2022-11-01T02:28:52.490Z,15.00
2022-11-01T02:31:37.396Z,16.37
2022-11-01T02:34:16.870Z,15.87
2022-11-01T02:36:57.563Z,15.97
2022-11-01T02:39:30.862Z,16.10
2022-11-01T02:42:07.392Z,15.30
2022-11-01T02:44:35.693Z,14.80
2022-11-01T02:47:02.501Z,14.70
2022-11-01T02:49:36.699Z,16.03
2022-11-01T02:52:03.826Z,16.50
2022-11-01T02:54:37.975Z,16.33
2022-11-01T02:57:18.199Z,16.30
2022-11-01T02:59:45.763Z,15.70
2022-11-01T03:02:39.739Z,16.27
2022-11-01T03:05:37.497Z,16.33
2022-11-01T03:08:06.770Z,14.10
2022-11-01T03:10:44.748Z,15.37
2022-11-01T03:13:33.317Z,16.10
2022-11-01T03:16:26.220Z,15.60
2022-11-01T03:19:24.655Z,14.87
2022-11-01T03:21:58.720Z,15.10
2022-11-01T03:24:27.757Z,15.33
2022-11-01T03:27:04.148Z,15.47
2022-11-01T03:29:30.913Z,14.30
2022-11-01T03:31:57.677Z,14.40
2022-11-01T03:34:25.058Z,14.03
2022-11-01T03:36:53.365Z,16.07
2022-11-01T03:39:46.812Z,14.60
2022-11-01T03:42:18.839Z,14.90
2022-11-01T03:44:48.549Z,15.40
2022-11-01T03:47:15.261Z,15.93
2022-11-01T03:49:42.381Z,14.63
2022-11-01T03:52:09.535Z,15.00
2022-11-01T03:54:36.600Z,17.63
2022-11-01T03:57:03.712Z,16.63
2022-11-01T03:59:30.895Z,16.67
2022-11-01T04:01:58.142Z,14.63
2022-11-01T04:04:25.452Z,16.37
2022-11-01T04:06:52.519Z,16.20
2022-11-01T04:09:19.633Z,14.67
2022-11-01T04:11:46.769Z,15.77
2022-11-01T04:14:32.764Z,15.50
2022-11-01T04:17:18.820Z,14.70
2022-11-01T04:20:04.767Z,16.53
2022-11-01T04:22:31.875Z,15.13
2022-11-01T04:24:58.936Z,16.77
2022-11-01T04:27:26.002Z,16.60
2022-11-01T04:29:53.125Z,15.10
2022-11-01T04:32:20.232Z,15.43
2022-11-01T04:34:47.311Z,16.80
2022-11-01T04:37:14.381Z,16.77
2022-11-01T04:39:41.470Z,15.23
2022-11-01T04:42:08.540Z,18.70
2022-11-01T04:44:35.629Z,16.70
2022-11-01T04:47:02.733Z,16.27
2022-11-01T04:49:29.888Z,14.93
2022-11-01T04:51:57.042Z,16.33
2022-11-01T04:54:24.174Z,15.30
2022-11-01T04:56:51.349Z,15.00
2022-11-01T04:59:18.433Z,16.27
2022-11-01T05:01:45.564Z,14.80
2022-11-01T05:04:12.714Z,16.40
2022-11-01T05:06:39.802Z,15.80
2022-11-01T05:09:06.921Z,15.03
2022-11-01T05:11:34.026Z,14.77
2022-11-01T05:14:01.121Z,15.07
2022-11-01T05:16:30.453Z,16.07
2022-11-01T05:18:57.559Z,15.23
2022-11-01T05:21:24.639Z,15.97
2022-11-01T05:23:51.766Z,16.50
2022-11-01T05:26:19.253Z,14.20
2022-11-01T05:28:46.337Z,12.73
2022-11-01T05:31:13.569Z,14.70
2022-11-01T05:33:40.704Z,13.77
2022-11-01T05:36:07.960Z,15.20
2022-11-01T05:38:35.105Z,12.93
2022-11-01T05:41:02.980Z,14.97
2022-11-01T05:43:30.255Z,13.70
2022-11-01T05:45:57.424Z,14.20
2022-11-01T05:48:24.494Z,14.07
2022-11-01T05:50:54.490Z,12.93
2022-11-01T05:53:21.740Z,13.63
2022-11-01T05:55:50.902Z,15.10
2022-11-01T05:58:26.483Z,13.73
2022-11-01T06:01:07.148Z,12.97
2022-11-01T06:03:37.210Z,14.27
2022-11-01T06:06:11.583Z,12.57
2022-11-01T06:08:38.706Z,13.10
2022-11-01T06:11:06.005Z,13.47
2022-11-01T06:13:33.323Z,14.43
2022-11-01T06:16:00.888Z,14.70
2022-11-01T06:18:28.020Z,12.33
2022-11-01T06:20:55.136Z,13.57
2022-11-01T06:23:22.247Z,12.47
2022-11-01T06:25:49.506Z,11.43
2022-11-01T06:28:16.899Z,11.50
2022-11-01T06:30:44.103Z,11.57
2022-11-01T06:33:11.451Z,12.60
2022-11-01T06:35:38.619Z,12.20
2022-11-01T06:38:09.292Z,12.97
2022-11-01T06:40:39.390Z,11.63
2022-11-01T06:43:06.682Z,11.47
2022-11-01T06:45:33.950Z,11.90
2022-11-01T06:48:01.222Z,12.20
2022-11-01T06:50:28.504Z,10.73
2022-11-01T06:53:01.857Z,11.20
2022-11-01T06:55:29.185Z,10.77
2022-11-01T06:58:00.485Z,10.40
2022-11-01T07:00:28.737Z,11.23
2022-11-01T07:03:04.720Z,11.40
2022-11-01T07:05:36.161Z,11.73
2022-11-01T07:08:05.171Z,11.27
2022-11-01T07:10:34.933Z,12.20
2022-11-01T07:13:05.414Z,12.10
2022-11-01T07:15:32.659Z,11.80
2022-11-01T07:18:00.733Z,10.83
2022-11-01T07:20:29.836Z,11.37
2022-11-01T07:22:58.431Z,14.07
2022-11-01T07:25:25.954Z,11.37
2022-11-01T07:27:55.919Z,11.33
2022-11-01T07:30:23.095Z,10.90
2022-11-01T07:32:50.231Z,9.97
2022-11-01T07:35:17.528Z,11.10
2022-11-01T07:37:44.626Z,10.70
2022-11-01T07:40:12.764Z,9.60
2022-11-01T07:42:43.438Z,9.53
2022-11-01T07:45:13.065Z,9.40
2022-11-01T07:47:40.481Z,9.87
2022-11-01T07:50:10.112Z,11.23
2022-11-01T07:52:37.206Z,10.50
2022-11-01T07:55:07.044Z,9.80
2022-11-01T07:57:38.196Z,10.20
2022-11-01T08:00:05.580Z,12.30
2022-11-01T08:02:32.742Z,13.10
2022-11-01T08:05:00.062Z,12.40
2022-11-01T08:07:27.793Z,12.97
2022-11-01T08:09:54.876Z,13.60
2022-11-01T08:12:21.968Z,13.43
2022-11-01T08:14:51.756Z,12.27
2022-11-01T08:17:18.978Z,12.07
2022-11-01T08:19:46.049Z,13.10
2022-11-01T08:22:13.149Z,12.83
2022-11-01T08:24:40.423Z,14.43
2022-11-01T08:27:07.516Z,14.70
2022-11-01T08:29:34.595Z,13.53
2022-11-01T08:32:01.691Z,13.07
2022-11-01T08:34:30.781Z,12.77
2022-11-01T08:36:58.633Z,12.77
2022-11-01T08:39:26.027Z,13.97
2022-11-01T08:41:53.087Z,13.77
2022-11-01T08:44:20.336Z,14.30
2022-11-01T08:46:47.563Z,15.77
2022-11-01T08:49:14.714Z,15.40
2022-11-01T08:51:41.775Z,13.90
2022-11-01T08:54:08.887Z,14.70
2022-11-01T08:56:35.971Z,16.33
2022-11-01T08:59:03.114Z,13.17
2022-11-01T09:01:30.321Z,11.17
2022-11-01T09:03:58.188Z,10.37
2022-11-01T09:06:25.629Z,13.10
2022-11-01T09:08:53.497Z,10.90
2022-11-01T09:11:21.232Z,10.43
2022-11-01T09:13:48.353Z,9.80
2022-11-01T09:16:15.452Z,10.20
2022-11-01T09:18:42.903Z,8.87
2022-11-01T09:21:10.006Z,11.03
2022-11-01T09:23:37.632Z,10.53
2022-11-01T09:26:08.760Z,11.50
2022-11-01T09:28:35.875Z,9.67
2022-11-01T09:31:22.206Z,9.17
2022-11-01T09:33:49.371Z,8.00
2022-11-01T09:36:16.608Z,10.00
2022-11-01T09:38:43.744Z,14.97
2022-11-01T09:41:13.973Z,15.00
2022-11-01T09:43:41.277Z,9.30
2022-11-01T09:46:08.344Z,9.23
2022-11-01T09:48:35.460Z,10.63
2022-11-01T09:51:03.788Z,10.23
2022-11-01T09:53:30.911Z,9.07
2022-11-01T09:55:59.725Z,9.70
2022-11-01T09:58:30.195Z,7.80
2022-11-01T10:01:06.808Z,7.43
2022-11-01T10:03:56.275Z,11.77
2022-11-01T10:06:24.873Z,11.57
2022-11-01T10:08:55.162Z,10.37
2022-11-01T10:11:28.437Z,8.37
2022-11-01T10:14:00.624Z,14.57
2022-11-01T10:16:32.896Z,4.80
2022-11-01T10:19:04.551Z,8.17
2022-11-01T10:21:42.797Z,6.00
2022-11-01T10:24:15.822Z,6.50
2022-11-01T10:26:45.454Z,5.60
2022-11-01T10:29:18.584Z,10.33
2022-11-01T10:31:46.310Z,10.70
2022-11-01T10:34:16.371Z,5.30
2022-11-01T10:36:45.021Z,12.00
2022-11-01T10:42:09.936Z,9.07
2022-11-01T10:44:39.560Z,7.80
2022-11-01T10:47:07.331Z,7.77
2022-11-01T10:52:24.573Z,7.80
2022-11-01T10:54:51.717Z,7.23
2022-11-01T10:57:24.287Z,10.73
2022-11-01T10:59:51.667Z,18.90
2022-11-01T11:02:21.906Z,13.03
2022-11-01T11:04:50.033Z,6.37
2022-11-01T11:07:21.489Z,9.83
2022-11-01T11:09:51.372Z,11.43
2022-11-01T11:12:20.390Z,7.17
2022-11-01T11:14:48.307Z,13.47
2022-11-01T11:17:25.918Z,7.60
2022-11-01T11:19:53.624Z,7.50
2022-11-01T11:22:21.520Z,8.63
2022-11-01T11:24:48.684Z,6.00
2022-11-01T11:27:20.642Z,5.40
2022-11-01T11:29:51.884Z,5.47
2022-11-01T11:32:22.989Z,4.80
2022-11-01T11:34:57.293Z,4.40
2022-11-01T11:37:24.804Z,4.23
2022-11-01T11:40:30.658Z,3.77
2022-11-01T11:43:15.565Z,3.90
2022-11-01T11:45:42.678Z,3.47
2022-11-01T11:48:16.810Z,3.73
2022-11-01T11:50:43.907Z,3.90
2022-11-01T11:53:22.214Z,3.13
2022-11-01T11:55:53.468Z,3.40
2022-11-01T11:58:30.344Z,3.70
2022-11-01T12:01:23.832Z,3.50
2022-11-01T12:03:58.564Z,3.40
2022-11-01T12:06:26.254Z,3.40
2022-11-01T12:08:59.598Z,3.33
2022-11-01T12:11:37.264Z,3.23
2022-11-01T12:14:05.418Z,3.83
2022-11-01T12:16:41.600Z,4.00
2022-11-01T12:19:13.371Z,3.93
2022-11-01T12:21:42.262Z,3.53
2022-11-01T12:24:16.057Z,3.90
2022-11-01T12:26:43.195Z,3.57
2022-11-01T12:29:13.339Z,3.00
2022-11-01T12:31:41.945Z,3.40
2022-11-01T12:34:18.880Z,2.73
2022-11-01T12:36:58.148Z,2.97
2022-11-01T12:39:25.855Z,2.87
2022-11-01T12:42:03.908Z,4.43
2022-11-01T12:44:42.208Z,3.43
2022-11-01T12:47:14.355Z,3.43
2022-11-01T12:49:50.903Z,3.53
2022-11-01T12:52:23.820Z,3.80
2022-11-01T12:55:09.682Z,4.93
2022-11-01T12:57:36.981Z,2.80
2022-11-01T13:00:05.734Z,3.60
2022-11-01T13:02:41.648Z,2.50
2022-11-01T13:05:15.605Z,1.83
2022-11-01T13:08:04.622Z,2.37
2022-11-01T13:10:38.734Z,2.00
2022-11-01T13:13:08.436Z,2.70
2022-11-01T13:15:50.691Z,2.17
2022-11-01T13:18:23.591Z,2.23
2022-11-01T13:21:09.306Z,2.87
2022-11-01T13:23:37.427Z,1.70
2022-11-01T13:26:04.525Z,2.03
2022-11-01T13:28:41.540Z,2.80
2022-11-01T13:31:10.673Z,2.70
2022-11-01T13:33:43.237Z,1.97
2022-11-01T13:36:13.067Z,2.70
2022-11-01T13:38:44.703Z,1.80
2022-11-01T13:41:19.747Z,2.37
2022-11-01T13:43:51.748Z,2.20
2022-11-01T13:46:18.929Z,2.63
2022-11-01T13:48:46.036Z,2.47
2022-11-01T13:51:22.514Z,1.80
2022-11-01T13:53:53.447Z,2.30
2022-11-01T13:56:29.726Z,2.47
2022-11-01T13:58:58.579Z,2.37
2022-11-01T14:01:28.905Z,2.53
2022-11-01T14:04:08.596Z,2.43
2022-11-01T14:06:36.578Z,2.53
2022-11-01T14:09:20.789Z,3.50
2022-11-01T14:11:51.848Z,3.10
2022-11-01T14:14:31.361Z,2.60
2022-11-01T14:17:16.828Z,2.60
2022-11-01T14:19:44.991Z,2.67
2022-11-01T14:22:24.372Z,2.37
2022-11-01T14:24:58.268Z,2.23
2022-11-01T14:27:35.834Z,2.33
2022-11-01T14:30:03.295Z,3.30
2022-11-01T14:32:31.035Z,2.50
2022-11-01T14:35:24.369Z,1.87
2022-11-01T14:37:52.808Z,3.00
2022-11-01T14:40:21.353Z,2.50
2022-11-01T14:42:48.512Z,2.37
2022-11-01T14:45:32.955Z,2.37
2022-11-01T14:48:01.972Z,2.43
2022-11-01T14:50:30.524Z,2.10
2022-11-01T14:53:00.021Z,1.90
2022-11-01T14:55:36.800Z,1.77
2022-11-01T14:58:07.881Z,2.17
2022-11-01T15:00:35.009Z,2.50
2022-11-01T15:03:02.588Z,3.20
2022-11-01T15:05:29.956Z,3.23
2022-11-01T15:07:58.945Z,4.30
2022-11-01T15:10:26.057Z,2.70
2022-11-01T15:12:53.114Z,2.70
2022-11-01T15:15:21.345Z,3.20
2022-11-01T15:17:55.429Z,2.33
2022-11-01T15:20:22.599Z,2.90
2022-11-01T15:22:49.671Z,2.33
2022-11-01T15:25:20.132Z,3.27
2022-11-01T15:27:47.256Z,2.43
2022-11-01T15:30:23.190Z,2.70
2022-11-01T15:33:13.814Z,3.27
2022-11-01T15:35:40.907Z,3.77
2022-11-01T15:38:21.267Z,3.43
2022-11-01T15:40:50.484Z,3.40
2022-11-01T15:43:18.616Z,3.00
2022-11-01T15:45:45.920Z,3.43
2022-11-01T15:48:13.673Z,4.00
2022-11-01T15:50:41.464Z,3.37
2022-11-01T15:53:09.199Z,3.20
2022-11-01T15:55:37.536Z,3.90
2022-11-01T15:58:09.223Z,3.80
2022-11-01T16:00:37.476Z,3.97
2022-11-01T16:03:28.172Z,5.20
2022-11-01T16:05:59.678Z,4.17
2022-11-01T16:08:31.584Z,4.00
2022-11-01T16:10:58.690Z,3.30
2022-11-01T16:13:25.769Z,3.80
2022-11-01T16:16:02.665Z,4.13
2022-11-01T16:18:29.904Z,4.73
2022-11-01T16:21:06.345Z,4.37
2022-11-01T16:23:33.577Z,5.90
2022-11-01T16:26:10.311Z,6.27
2022-11-01T16:28:38.947Z,5.50
2022-11-01T16:31:18.001Z,6.60
2022-11-01T16:33:45.738Z,6.03
2022-11-01T16:36:19.034Z,4.90
2022-11-01T16:38:46.155Z,7.07
2022-11-01T16:41:24.119Z,5.20
2022-11-01T16:43:54.912Z,6.60
2022-11-01T16:46:22.189Z,4.30
2022-11-01T16:48:49.270Z,5.40
2022-11-01T16:51:16.400Z,13.67
2022-11-01T16:53:43.794Z,23.23
2022-11-01T16:56:35.485Z,24.57
2022-11-01T16:59:05.559Z,9.23
2022-11-01T17:01:35.611Z,9.13
2022-11-01T17:04:03.084Z,11.40
2022-11-01T17:06:33.499Z,34.27
2022-11-01T17:09:04.792Z,29.50
2022-11-01T17:11:31.907Z,20.43
2022-11-01T17:13:58.980Z,18.27
2022-11-01T17:16:27.373Z,23.03
2022-11-01T17:18:55.568Z,25.07
2022-11-01T17:21:22.669Z,54.47
2022-11-01T17:23:51.218Z,60.50
2022-11-01T17:26:19.291Z,42.90
2022-11-01T17:28:52.143Z,15.70
2022-11-01T17:31:19.522Z,15.63
2022-11-01T17:33:46.605Z,17.37
2022-11-01T17:36:14.151Z,16.50
2022-11-01T17:38:41.401Z,15.83
2022-11-01T17:41:09.209Z,16.20
2022-11-01T17:43:36.272Z,25.10
2022-11-01T17:46:03.389Z,30.00
2022-11-01T17:48:30.454Z,27.20
2022-11-01T17:51:00.888Z,16.60
2022-11-01T17:53:27.955Z,14.33
2022-11-01T17:55:57.976Z,17.13
2022-11-01T17:58:25.063Z,16.40
2022-11-01T18:00:52.279Z,18.50
2022-11-01T18:03:19.468Z,18.67
2022-11-01T18:05:46.600Z,16.90
2022-11-01T18:08:15.898Z,16.70
2022-11-01T18:10:44.219Z,17.20
2022-11-01T18:13:30.216Z,16.57
2022-11-01T18:15:57.297Z,16.97
2022-11-01T18:18:26.512Z,15.00
2022-11-01T18:21:12.477Z,13.20
2022-11-01T18:23:39.980Z,10.90
2022-11-01T18:26:08.708Z,11.53
2022-11-01T18:28:35.785Z,10.20
2022-11-01T18:31:03.593Z,10.07
2022-11-01T18:33:31.479Z,8.60
2022-11-01T18:36:03.312Z,8.10
2022-11-01T18:38:35.544Z,8.10
2022-11-01T18:41:03.175Z,8.03
2022-11-01T18:43:34.270Z,6.90
2022-11-01T18:46:23.858Z,8.00
2022-11-01T18:48:50.493Z,7.30
2022-11-01T18:51:23.248Z,8.93
2022-11-01T18:53:53.351Z,7.87
2022-11-01T18:56:21.679Z,7.57
2022-11-01T18:58:49.647Z,8.33
2022-11-01T19:01:32.418Z,29.30
2022-11-01T19:04:01.565Z,42.90
2022-11-01T19:06:28.781Z,40.27
2022-11-01T19:08:57.154Z,34.80
2022-11-01T19:11:26.062Z,22.93
2022-11-01T19:13:53.169Z,18.33
2022-11-01T19:16:20.344Z,16.47
2022-11-01T19:18:50.694Z,14.87
2022-11-01T19:21:18.567Z,18.90
2022-11-01T19:23:52.451Z,16.70
2022-11-01T19:26:26.711Z,18.23
2022-11-01T19:28:53.845Z,19.63
2022-11-01T19:31:23.734Z,14.43
2022-11-01T19:33:55.435Z,13.30
2022-11-01T19:36:23.953Z,13.63
2022-11-01T19:38:51.273Z,13.17
2022-11-01T19:41:23.392Z,16.00
2022-11-01T19:43:51.081Z,14.17
2022-11-01T19:46:19.415Z,15.30
2022-11-01T19:48:46.517Z,12.17
2022-11-01T19:51:20.549Z,12.23
2022-11-01T19:53:47.692Z,10.80
2022-11-01T19:56:17.568Z,10.00
2022-11-01T19:58:48.982Z,13.03
2022-11-01T20:01:24.066Z,13.83
2022-11-01T20:03:51.314Z,13.60
2022-11-01T20:06:18.490Z,13.07
2022-11-01T20:08:45.602Z,13.30
2022-11-01T20:11:13.425Z,13.23
2022-11-01T20:13:40.668Z,12.00
2022-11-01T20:16:10.917Z,10.90
2022-11-01T20:18:38.043Z,10.87
2022-11-01T20:21:06.411Z,10.23
2022-11-01T20:23:34.074Z,9.90
2022-11-01T20:26:01.449Z,9.57
2022-11-01T20:28:28.735Z,8.37
2022-11-01T20:30:56.216Z,8.20
2022-11-01T20:33:25.104Z,8.50
2022-11-01T20:35:52.701Z,8.40
2022-11-01T20:40:52.273Z,9.20
2022-11-01T20:43:19.469Z,8.23
2022-11-01T20:45:46.623Z,7.97
2022-11-01T20:48:13.672Z,10.40
2022-11-01T20:50:41.442Z,10.33
2022-11-01T20:53:08.763Z,11.43
2022-11-01T20:55:36.009Z,8.80
2022-11-01T20:58:04.001Z,9.87
2022-11-01T21:00:31.803Z,9.60
2022-11-01T21:02:59.075Z,8.83
2022-11-01T21:05:26.992Z,8.30
2022-11-01T21:07:54.905Z,7.87
2022-11-01T21:10:25.042Z,7.53
2022-11-01T21:12:52.253Z,8.70
2022-11-01T21:15:39.705Z,7.97
2022-11-01T21:18:12.914Z,7.67
2022-11-01T21:20:40.773Z,7.47
2022-11-01T21:23:27.848Z,6.93
2022-11-01T21:25:58.281Z,8.20
2022-11-01T21:28:45.399Z,8.30
2022-11-01T21:31:15.277Z,7.00
2022-11-01T21:33:50.175Z,7.10
2022-11-01T21:36:20.461Z,7.60
2022-11-01T21:38:52.122Z,6.87
2022-11-01T21:41:22.008Z,7.23
2022-11-01T21:43:49.081Z,7.70
2022-11-01T21:46:20.527Z,7.67
2022-11-01T21:48:47.745Z,8.60
2022-11-01T21:51:14.828Z,8.00
2022-11-01T21:53:41.906Z,7.80
2022-11-01T21:56:09.010Z,8.33
2022-11-01T21:58:36.075Z,8.33
2022-11-01T22:01:03.321Z,7.90
2022-11-01T22:03:30.492Z,7.77
2022-11-01T22:05:57.643Z,7.43
2022-11-01T22:08:24.805Z,6.30
2022-11-01T22:10:51.937Z,9.40
2022-11-01T22:13:19.068Z,8.20
2022-11-01T22:15:46.202Z,8.00
2022-11-01T22:18:13.440Z,8.73
2022-11-01T22:20:41.138Z,7.37
2022-11-01T22:23:08.229Z,8.30
2022-11-01T22:25:35.305Z,8.60
2022-11-01T22:28:02.873Z,8.00
2022-11-01T22:30:29.985Z,7.50
2022-11-01T22:32:57.172Z,8.57
2022-11-01T22:35:24.338Z,8.60
2022-11-01T22:37:51.519Z,7.50
2022-11-01T22:40:18.782Z,8.27
2022-11-01T22:42:47.865Z,8.30
2022-11-01T22:45:18.508Z,8.50
2022-11-01T22:47:46.162Z,7.47
2022-11-01T22:50:14.288Z,7.10
2022-11-01T22:52:44.588Z,8.00
2022-11-01T22:55:11.692Z,9.37
2022-11-01T22:57:48.799Z,7.73
2022-11-01T23:00:36.224Z,8.10
2022-11-01T23:03:12.600Z,8.23
2022-11-01T23:05:39.666Z,9.00
2022-11-01T23:08:21.590Z,7.97
2022-11-01T23:10:49.143Z,8.80
2022-11-01T23:13:36.317Z,8.77
2022-11-01T23:16:12.375Z,9.00
2022-11-01T23:18:39.530Z,9.07
2022-11-01T23:21:07.059Z,9.73
2022-11-01T23:23:37.660Z,9.50
2022-11-01T23:26:04.843Z,10.10
2022-11-01T23:28:35.236Z,10.37
2022-11-01T23:31:03.166Z,9.30
2022-11-01T23:33:35.225Z,10.00
2022-11-01T23:36:02.386Z,9.20
2022-11-01T23:38:29.432Z,9.77
2022-11-01T23:40:56.498Z,10.17
2022-11-01T23:43:39.676Z,9.33
2022-11-01T23:46:06.921Z,8.40
2022-11-01T23:48:34.125Z,9.00
2022-11-01T23:51:01.231Z,9.83
2022-11-01T23:53:31.887Z,9.37
2022-11-01T23:55:58.966Z,10.17
2022-11-01T23:58:27.282Z,9.73
